sensor_id;sensor_type;location;lat;lon;timestamp;P1;durP1;ratioP1;P2;durP2;ratioP2
846;SDS011;410;48.954;9.474;2022-09-09T00:00:55;9.43;;;2.53;;
846;SDS011;410;48.954;9.474;2022-09-09T00:03:05;7.87;;;2.53;;
846;SDS011;410;48.954;9.474;2022-09-09T00:05:14;3.87;;;3.10;;
846;SDS011;410;48.954;9.474;2022-09-09T00:07:21;3.90;;;2.70;;
846;SDS011;410;48.954;9.474;2022-09-09T00:09:31;6.60;;;3.30;;
846;SDS011;410;48.954;9.474;2022-09-09T00:11:40;5.93;;;3.10;;
846;SDS011;410;48.954;9.474;2022-09-09T00:13:46;4.63;;;3.00;;
846;SDS011;410;48.954;9.474;2022-09-09T00:15:54;3.97;;;2.50;;
846;SDS011;410;48.954;9.474;2022-09-09T00:18:03;5.83;;;2.50;;
846;SDS011;410;48.954;9.474;2022-09-09T00:20:16;3.63;;;2.50;;
846;SDS011;410;48.954;9.474;2022-09-09T00:22:23;5.20;;;2.90;;
846;SDS011;410;48.954;9.474;2022-09-09T00:24:28;4.00;;;2.80;;
846;SDS011;410;48.954;9.474;2022-09-09T00:26:38;3.33;;;2.50;;
846;SDS011;410;48.954;9.474;2022-09-09T00:28:46;3.30;;;2.70;;
846;SDS011;410;48.954;9.474;2022-09-09T00:30:55;5.33;;;2.97;;
846;SDS011;410;48.954;9.474;2022-09-09T00:32:59;3.13;;;2.50;;
846;SDS011;410;48.954;9.474;2022-09-09T00:35:11;5.93;;;3.03;;
846;SDS011;410;48.954;9.474;2022-09-09T00:37:19;4.00;;;3.10;;
846;SDS011;410;48.954;9.474;2022-09-09T00:39:25;4.13;;;3.10;;
846;SDS011;410;48.954;9.474;2022-09-09T00:41:36;5.10;;;3.00;;
846;SDS011;410;48.954;9.474;2022-09-09T00:43:49;5.57;;;2.90;;
846;SDS011;410;48.954;9.474;2022-09-09T00:48:27;4.97;;;3.00;;
846;SDS011;410;48.954;9.474;2022-09-09T00:50:35;4.13;;;2.87;;
846;SDS011;410;48.954;9.474;2022-09-09T00:52:44;4.67;;;2.77;;
846;SDS011;410;48.954;9.474;2022-09-09T00:54:52;3.43;;;2.70;;
846;SDS011;410;48.954;9.474;2022-09-09T00:57:03;8.83;;;3.00;;
846;SDS011;410;48.954;9.474;2022-09-09T00:59:14;3.70;;;2.67;;
846;SDS011;410;48.954;9.474;2022-09-09T01:01:21;3.47;;;2.80;;
846;SDS011;410;48.954;9.474;2022-09-09T01:03:27;4.40;;;2.60;;
846;SDS011;410;48.954;9.474;2022-09-09T01:05:36;4.53;;;2.70;;
846;SDS011;410;48.954;9.474;2022-09-09T01:07:44;4.17;;;2.70;;
846;SDS011;410;48.954;9.474;2022-09-09T01:09:52;6.40;;;2.60;;
846;SDS011;410;48.954;9.474;2022-09-09T01:11:59;5.20;;;3.10;;
846;SDS011;410;48.954;9.474;2022-09-09T01:14:10;5.30;;;2.80;;
846;SDS011;410;48.954;9.474;2022-09-09T01:16:23;3.17;;;2.53;;
846;SDS011;410;48.954;9.474;2022-09-09T01:18:27;5.60;;;2.80;;
846;SDS011;410;48.954;9.474;2022-09-09T01:20:35;3.80;;;2.70;;
846;SDS011;410;48.954;9.474;2022-09-09T01:22:44;4.10;;;2.70;;
846;SDS011;410;48.954;9.474;2022-09-09T01:25:07;4.77;;;2.63;;
846;SDS011;410;48.954;9.474;2022-09-09T01:27:45;4.27;;;2.70;;
846;SDS011;410;48.954;9.474;2022-09-09T01:29:50;4.63;;;2.17;;
846;SDS011;410;48.954;9.474;2022-09-09T01:31:56;4.57;;;2.53;;
846;SDS011;410;48.954;9.474;2022-09-09T01:34:00;4.50;;;2.80;;
846;SDS011;410;48.954;9.474;2022-09-09T01:36:04;8.47;;;3.03;;
846;SDS011;410;48.954;9.474;2022-09-09T01:38:17;3.77;;;2.67;;
846;SDS011;410;48.954;9.474;2022-09-09T01:40:23;6.63;;;3.10;;
846;SDS011;410;48.954;9.474;2022-09-09T01:42:28;3.20;;;2.73;;
846;SDS011;410;48.954;9.474;2022-09-09T01:44:32;3.20;;;2.50;;
846;SDS011;410;48.954;9.474;2022-09-09T01:46:36;4.40;;;3.00;;
846;SDS011;410;48.954;9.474;2022-09-09T01:48:45;3.57;;;2.73;;
846;SDS011;410;48.954;9.474;2022-09-09T01:50:49;4.00;;;3.10;;
846;SDS011;410;48.954;9.474;2022-09-09T01:52:53;5.27;;;3.07;;
846;SDS011;410;48.954;9.474;2022-09-09T01:55:01;3.80;;;2.90;;
846;SDS011;410;48.954;9.474;2022-09-09T01:57:11;4.40;;;3.27;;
846;SDS011;410;48.954;9.474;2022-09-09T01:59:30;4.63;;;3.50;;
846;SDS011;410;48.954;9.474;2022-09-09T02:01:46;6.47;;;3.10;;
846;SDS011;410;48.954;9.474;2022-09-09T02:03:59;5.10;;;2.40;;
846;SDS011;410;48.954;9.474;2022-09-09T02:06:08;5.37;;;3.53;;
846;SDS011;410;48.954;9.474;2022-09-09T02:08:17;4.40;;;2.90;;
846;SDS011;410;48.954;9.474;2022-09-09T02:10:30;4.50;;;3.30;;
846;SDS011;410;48.954;9.474;2022-09-09T02:12:48;4.43;;;3.10;;
846;SDS011;410;48.954;9.474;2022-09-09T02:14:58;4.93;;;3.20;;
846;SDS011;410;48.954;9.474;2022-09-09T02:17:16;5.13;;;3.10;;
846;SDS011;410;48.954;9.474;2022-09-09T02:19:31;3.57;;;3.00;;
846;SDS011;410;48.954;9.474;2022-09-09T02:21:42;3.63;;;3.07;;
846;SDS011;410;48.954;9.474;2022-09-09T02:23:46;4.43;;;3.10;;
846;SDS011;410;48.954;9.474;2022-09-09T02:25:51;17.13;;;4.73;;
846;SDS011;410;48.954;9.474;2022-09-09T02:27:57;4.80;;;3.10;;
846;SDS011;410;48.954;9.474;2022-09-09T02:30:03;3.83;;;3.00;;
846;SDS011;410;48.954;9.474;2022-09-09T02:32:19;3.50;;;2.50;;
846;SDS011;410;48.954;9.474;2022-09-09T02:34:24;5.17;;;3.30;;
846;SDS011;410;48.954;9.474;2022-09-09T02:36:31;9.03;;;3.00;;
846;SDS011;410;48.954;9.474;2022-09-09T02:38:37;3.03;;;2.57;;
846;SDS011;410;48.954;9.474;2022-09-09T02:40:47;4.50;;;3.20;;
846;SDS011;410;48.954;9.474;2022-09-09T02:42:50;4.47;;;3.03;;
846;SDS011;410;48.954;9.474;2022-09-09T02:44:55;6.30;;;3.87;;
846;SDS011;410;48.954;9.474;2022-09-09T02:47:04;4.10;;;2.97;;
846;SDS011;410;48.954;9.474;2022-09-09T02:49:17;3.77;;;2.80;;
846;SDS011;410;48.954;9.474;2022-09-09T02:51:24;4.70;;;2.63;;
846;SDS011;410;48.954;9.474;2022-09-09T02:53:32;3.47;;;2.63;;
846;SDS011;410;48.954;9.474;2022-09-09T02:55:45;3.00;;;2.70;;
846;SDS011;410;48.954;9.474;2022-09-09T02:57:52;3.63;;;2.93;;
846;SDS011;410;48.954;9.474;2022-09-09T02:59:57;5.43;;;3.13;;
846;SDS011;410;48.954;9.474;2022-09-09T03:02:04;4.43;;;2.93;;
846;SDS011;410;48.954;9.474;2022-09-09T03:04:09;3.90;;;2.63;;
846;SDS011;410;48.954;9.474;2022-09-09T03:06:13;5.77;;;2.70;;
846;SDS011;410;48.954;9.474;2022-09-09T03:08:18;5.00;;;2.83;;
846;SDS011;410;48.954;9.474;2022-09-09T03:10:22;3.97;;;2.60;;
846;SDS011;410;48.954;9.474;2022-09-09T03:12:25;4.83;;;2.90;;
846;SDS011;410;48.954;9.474;2022-09-09T03:14:28;4.80;;;3.10;;
846;SDS011;410;48.954;9.474;2022-09-09T03:16:31;6.33;;;2.93;;
846;SDS011;410;48.954;9.474;2022-09-09T03:18:37;5.20;;;2.70;;
846;SDS011;410;48.954;9.474;2022-09-09T03:20:41;7.23;;;3.00;;
846;SDS011;410;48.954;9.474;2022-09-09T03:22:45;6.13;;;2.80;;
846;SDS011;410;48.954;9.474;2022-09-09T03:24:48;4.87;;;2.93;;
846;SDS011;410;48.954;9.474;2022-09-09T03:26:51;4.30;;;2.93;;
846;SDS011;410;48.954;9.474;2022-09-09T03:28:55;4.23;;;3.20;;
846;SDS011;410;48.954;9.474;2022-09-09T03:30:59;5.63;;;3.63;;
846;SDS011;410;48.954;9.474;2022-09-09T03:33:05;3.20;;;2.80;;
846;SDS011;410;48.954;9.474;2022-09-09T03:35:09;3.53;;;2.37;;
846;SDS011;410;48.954;9.474;2022-09-09T03:37:12;3.87;;;2.70;;
846;SDS011;410;48.954;9.474;2022-09-09T03:39:15;3.50;;;2.60;;
846;SDS011;410;48.954;9.474;2022-09-09T03:41:18;5.17;;;2.33;;
846;SDS011;410;48.954;9.474;2022-09-09T03:43:25;4.23;;;2.37;;
846;SDS011;410;48.954;9.474;2022-09-09T03:45:29;3.10;;;2.23;;
846;SDS011;410;48.954;9.474;2022-09-09T03:47:32;3.33;;;2.00;;
846;SDS011;410;48.954;9.474;2022-09-09T03:49:39;6.73;;;2.70;;
846;SDS011;410;48.954;9.474;2022-09-09T03:51:43;4.40;;;2.53;;
846;SDS011;410;48.954;9.474;2022-09-09T03:53:48;4.60;;;2.77;;
846;SDS011;410;48.954;9.474;2022-09-09T03:55:51;5.40;;;2.90;;
846;SDS011;410;48.954;9.474;2022-09-09T03:57:57;3.20;;;2.67;;
846;SDS011;410;48.954;9.474;2022-09-09T04:00:03;4.73;;;2.80;;
846;SDS011;410;48.954;9.474;2022-09-09T04:02:17;4.57;;;3.03;;
846;SDS011;410;48.954;9.474;2022-09-09T04:04:20;6.30;;;3.00;;
846;SDS011;410;48.954;9.474;2022-09-09T04:06:23;4.60;;;3.03;;
846;SDS011;410;48.954;9.474;2022-09-09T04:08:29;5.60;;;3.50;;
846;SDS011;410;48.954;9.474;2022-09-09T04:10:34;4.23;;;2.83;;
846;SDS011;410;48.954;9.474;2022-09-09T04:12:39;5.10;;;3.30;;
846;SDS011;410;48.954;9.474;2022-09-09T04:14:42;3.70;;;2.57;;
846;SDS011;410;48.954;9.474;2022-09-09T04:16:45;3.97;;;2.90;;
846;SDS011;410;48.954;9.474;2022-09-09T04:18:49;4.23;;;3.07;;
846;SDS011;410;48.954;9.474;2022-09-09T04:20:54;4.93;;;3.03;;
846;SDS011;410;48.954;9.474;2022-09-09T04:23:00;4.67;;;3.10;;
846;SDS011;410;48.954;9.474;2022-09-09T04:25:05;4.67;;;3.40;;
846;SDS011;410;48.954;9.474;2022-09-09T04:27:09;4.87;;;2.80;;
846;SDS011;410;48.954;9.474;2022-09-09T04:29:12;4.90;;;3.27;;
846;SDS011;410;48.954;9.474;2022-09-09T04:31:16;5.33;;;3.27;;
846;SDS011;410;48.954;9.474;2022-09-09T04:33:23;4.90;;;3.20;;
846;SDS011;410;48.954;9.474;2022-09-09T04:35:28;6.40;;;4.00;;
846;SDS011;410;48.954;9.474;2022-09-09T04:37:31;7.77;;;3.73;;
846;SDS011;410;48.954;9.474;2022-09-09T04:39:35;4.40;;;3.60;;
846;SDS011;410;48.954;9.474;2022-09-09T04:41:39;5.03;;;3.87;;
846;SDS011;410;48.954;9.474;2022-09-09T04:43:44;5.23;;;3.60;;
846;SDS011;410;48.954;9.474;2022-09-09T04:45:50;4.90;;;4.20;;
846;SDS011;410;48.954;9.474;2022-09-09T04:47:56;6.00;;;3.83;;
846;SDS011;410;48.954;9.474;2022-09-09T04:50:00;5.40;;;3.50;;
846;SDS011;410;48.954;9.474;2022-09-09T04:52:03;5.07;;;3.53;;
846;SDS011;410;48.954;9.474;2022-09-09T04:54:08;6.37;;;3.10;;
846;SDS011;410;48.954;9.474;2022-09-09T04:56:15;4.90;;;3.27;;
846;SDS011;410;48.954;9.474;2022-09-09T04:58:26;4.80;;;3.20;;
846;SDS011;410;48.954;9.474;2022-09-09T05:00:29;6.50;;;3.50;;
846;SDS011;410;48.954;9.474;2022-09-09T05:02:32;5.27;;;3.00;;
846;SDS011;410;48.954;9.474;2022-09-09T05:04:35;5.40;;;3.10;;
846;SDS011;410;48.954;9.474;2022-09-09T05:06:39;4.40;;;3.43;;
846;SDS011;410;48.954;9.474;2022-09-09T05:08:44;5.80;;;3.50;;
846;SDS011;410;48.954;9.474;2022-09-09T05:10:50;5.10;;;3.17;;
846;SDS011;410;48.954;9.474;2022-09-09T05:12:54;4.60;;;3.40;;
846;SDS011;410;48.954;9.474;2022-09-09T05:15:01;4.80;;;3.47;;
846;SDS011;410;48.954;9.474;2022-09-09T05:17:05;5.97;;;3.43;;
846;SDS011;410;48.954;9.474;2022-09-09T05:19:11;4.90;;;3.20;;
846;SDS011;410;48.954;9.474;2022-09-09T05:21:24;5.67;;;3.90;;
846;SDS011;410;48.954;9.474;2022-09-09T05:23:29;5.73;;;4.07;;
846;SDS011;410;48.954;9.474;2022-09-09T05:25:33;7.40;;;3.80;;
846;SDS011;410;48.954;9.474;2022-09-09T05:27:36;5.30;;;3.13;;
846;SDS011;410;48.954;9.474;2022-09-09T05:29:40;6.63;;;4.00;;
846;SDS011;410;48.954;9.474;2022-09-09T05:31:48;4.63;;;3.73;;
846;SDS011;410;48.954;9.474;2022-09-09T05:33:54;5.70;;;3.80;;
846;SDS011;410;48.954;9.474;2022-09-09T05:35:58;6.50;;;4.30;;
846;SDS011;410;48.954;9.474;2022-09-09T05:38:02;7.77;;;4.40;;
846;SDS011;410;48.954;9.474;2022-09-09T05:40:06;5.50;;;3.77;;
846;SDS011;410;48.954;9.474;2022-09-09T05:42:10;4.27;;;3.27;;
846;SDS011;410;48.954;9.474;2022-09-09T05:44:13;6.10;;;4.27;;
846;SDS011;410;48.954;9.474;2022-09-09T05:46:17;7.27;;;4.30;;
846;SDS011;410;48.954;9.474;2022-09-09T05:48:27;9.43;;;4.10;;
846;SDS011;410;48.954;9.474;2022-09-09T05:50:30;8.33;;;3.60;;
846;SDS011;410;48.954;9.474;2022-09-09T05:52:33;7.47;;;3.90;;
846;SDS011;410;48.954;9.474;2022-09-09T05:54:38;6.80;;;3.97;;
846;SDS011;410;48.954;9.474;2022-09-09T05:56:42;7.63;;;3.90;;
846;SDS011;410;48.954;9.474;2022-09-09T05:58:51;5.80;;;3.60;;
846;SDS011;410;48.954;9.474;2022-09-09T06:01:02;5.63;;;3.33;;
846;SDS011;410;48.954;9.474;2022-09-09T06:03:08;3.73;;;3.17;;
846;SDS011;410;48.954;9.474;2022-09-09T06:05:15;5.20;;;3.60;;
846;SDS011;410;48.954;9.474;2022-09-09T06:07:18;7.33;;;3.73;;
846;SDS011;410;48.954;9.474;2022-09-09T06:09:21;5.47;;;3.43;;
846;SDS011;410;48.954;9.474;2022-09-09T06:11:25;5.20;;;4.00;;
846;SDS011;410;48.954;9.474;2022-09-09T06:13:33;5.27;;;4.17;;
846;SDS011;410;48.954;9.474;2022-09-09T06:15:37;6.23;;;3.90;;
846;SDS011;410;48.954;9.474;2022-09-09T06:17:40;5.47;;;4.30;;
846;SDS011;410;48.954;9.474;2022-09-09T06:19:46;7.40;;;4.10;;
846;SDS011;410;48.954;9.474;2022-09-09T06:21:51;9.30;;;4.50;;
846;SDS011;410;48.954;9.474;2022-09-09T06:23:54;5.80;;;3.80;;
846;SDS011;410;48.954;9.474;2022-09-09T06:26:03;5.57;;;4.10;;
846;SDS011;410;48.954;9.474;2022-09-09T06:28:08;8.40;;;3.90;;
846;SDS011;410;48.954;9.474;2022-09-09T06:30:12;5.13;;;3.83;;
846;SDS011;410;48.954;9.474;2022-09-09T06:32:15;5.90;;;3.63;;
846;SDS011;410;48.954;9.474;2022-09-09T06:34:19;8.87;;;3.20;;
846;SDS011;410;48.954;9.474;2022-09-09T06:36:27;5.77;;;3.20;;
846;SDS011;410;48.954;9.474;2022-09-09T06:38:33;6.43;;;3.23;;
846;SDS011;410;48.954;9.474;2022-09-09T06:40:36;4.90;;;3.70;;
846;SDS011;410;48.954;9.474;2022-09-09T06:42:40;7.03;;;3.50;;
846;SDS011;410;48.954;9.474;2022-09-09T06:45:03;5.30;;;3.30;;
846;SDS011;410;48.954;9.474;2022-09-09T06:47:16;3.70;;;3.10;;
846;SDS011;410;48.954;9.474;2022-09-09T06:49:20;5.17;;;3.30;;
846;SDS011;410;48.954;9.474;2022-09-09T06:51:23;5.10;;;3.40;;
846;SDS011;410;48.954;9.474;2022-09-09T06:53:27;7.90;;;3.60;;
846;SDS011;410;48.954;9.474;2022-09-09T06:55:33;6.40;;;3.40;;
846;SDS011;410;48.954;9.474;2022-09-09T06:57:38;4.70;;;3.43;;
846;SDS011;410;48.954;9.474;2022-09-09T06:59:49;4.67;;;3.10;;
846;SDS011;410;48.954;9.474;2022-09-09T07:01:54;5.80;;;3.40;;
846;SDS011;410;48.954;9.474;2022-09-09T07:03:58;4.70;;;3.33;;
846;SDS011;410;48.954;9.474;2022-09-09T07:06:02;3.97;;;3.00;;
846;SDS011;410;48.954;9.474;2022-09-09T07:08:05;6.40;;;3.40;;
846;SDS011;410;48.954;9.474;2022-09-09T07:10:09;5.30;;;3.20;;
846;SDS011;410;48.954;9.474;2022-09-09T07:12:13;4.20;;;3.10;;
846;SDS011;410;48.954;9.474;2022-09-09T07:14:25;5.57;;;3.40;;
846;SDS011;410;48.954;9.474;2022-09-09T07:16:32;7.03;;;3.30;;
846;SDS011;410;48.954;9.474;2022-09-09T07:18:38;6.60;;;3.70;;
846;SDS011;410;48.954;9.474;2022-09-09T07:20:42;10.63;;;3.90;;
846;SDS011;410;48.954;9.474;2022-09-09T07:22:45;6.03;;;3.33;;
846;SDS011;410;48.954;9.474;2022-09-09T07:24:48;7.07;;;3.50;;
846;SDS011;410;48.954;9.474;2022-09-09T07:26:52;5.10;;;3.27;;
846;SDS011;410;48.954;9.474;2022-09-09T07:28:57;6.30;;;3.30;;
846;SDS011;410;48.954;9.474;2022-09-09T07:31:01;5.80;;;2.93;;
846;SDS011;410;48.954;9.474;2022-09-09T07:33:05;4.47;;;3.07;;
846;SDS011;410;48.954;9.474;2022-09-09T07:35:08;7.53;;;3.83;;
846;SDS011;410;48.954;9.474;2022-09-09T07:37:12;6.03;;;3.23;;
846;SDS011;410;48.954;9.474;2022-09-09T07:39:17;5.20;;;3.30;;
846;SDS011;410;48.954;9.474;2022-09-09T07:41:24;5.53;;;3.30;;
846;SDS011;410;48.954;9.474;2022-09-09T07:43:29;6.00;;;3.00;;
846;SDS011;410;48.954;9.474;2022-09-09T07:45:34;5.07;;;3.20;;
846;SDS011;410;48.954;9.474;2022-09-09T07:47:38;4.90;;;2.80;;
846;SDS011;410;48.954;9.474;2022-09-09T07:49:43;5.43;;;2.50;;
846;SDS011;410;48.954;9.474;2022-09-09T07:51:50;4.17;;;2.50;;
846;SDS011;410;48.954;9.474;2022-09-09T07:53:54;3.63;;;2.47;;
846;SDS011;410;48.954;9.474;2022-09-09T07:56:02;6.60;;;2.67;;
846;SDS011;410;48.954;9.474;2022-09-09T07:58:06;4.53;;;2.47;;
846;SDS011;410;48.954;9.474;2022-09-09T08:00:10;3.47;;;2.40;;
846;SDS011;410;48.954;9.474;2022-09-09T08:02:24;5.77;;;2.90;;
846;SDS011;410;48.954;9.474;2022-09-09T08:04:29;5.00;;;2.37;;
846;SDS011;410;48.954;9.474;2022-09-09T08:06:34;4.03;;;2.20;;
846;SDS011;410;48.954;9.474;2022-09-09T08:08:39;3.10;;;1.87;;
846;SDS011;410;48.954;9.474;2022-09-09T08:10:44;5.83;;;2.27;;
846;SDS011;410;48.954;9.474;2022-09-09T08:12:47;4.67;;;2.00;;
846;SDS011;410;48.954;9.474;2022-09-09T08:15:11;3.40;;;1.97;;
846;SDS011;410;48.954;9.474;2022-09-09T08:17:15;5.63;;;2.07;;
846;SDS011;410;48.954;9.474;2022-09-09T08:19:19;3.50;;;1.70;;
846;SDS011;410;48.954;9.474;2022-09-09T08:21:23;3.93;;;2.10;;
846;SDS011;410;48.954;9.474;2022-09-09T08:23:30;4.50;;;1.90;;
846;SDS011;410;48.954;9.474;2022-09-09T08:25:33;9.73;;;2.13;;
846;SDS011;410;48.954;9.474;2022-09-09T08:27:37;4.20;;;1.90;;
846;SDS011;410;48.954;9.474;2022-09-09T08:29:40;4.50;;;1.90;;
846;SDS011;410;48.954;9.474;2022-09-09T08:31:44;5.93;;;2.30;;
846;SDS011;410;48.954;9.474;2022-09-09T08:33:48;4.00;;;1.80;;
846;SDS011;410;48.954;9.474;2022-09-09T08:35:56;2.50;;;1.70;;
846;SDS011;410;48.954;9.474;2022-09-09T08:38:00;3.90;;;2.00;;
846;SDS011;410;48.954;9.474;2022-09-09T08:40:07;4.00;;;1.77;;
846;SDS011;410;48.954;9.474;2022-09-09T08:42:24;6.17;;;2.10;;
846;SDS011;410;48.954;9.474;2022-09-09T08:44:42;3.00;;;1.50;;
846;SDS011;410;48.954;9.474;2022-09-09T08:47:16;5.57;;;2.10;;
846;SDS011;410;48.954;9.474;2022-09-09T08:49:31;6.10;;;1.63;;
846;SDS011;410;48.954;9.474;2022-09-09T08:51:50;3.33;;;1.63;;
846;SDS011;410;48.954;9.474;2022-09-09T08:53:53;4.93;;;1.30;;
846;SDS011;410;48.954;9.474;2022-09-09T08:56:01;4.33;;;1.40;;
846;SDS011;410;48.954;9.474;2022-09-09T08:58:20;4.43;;;1.40;;
846;SDS011;410;48.954;9.474;2022-09-09T09:00:29;2.70;;;1.60;;
846;SDS011;410;48.954;9.474;2022-09-09T09:02:38;3.37;;;1.80;;
846;SDS011;410;48.954;9.474;2022-09-09T09:04:51;3.60;;;1.73;;
846;SDS011;410;48.954;9.474;2022-09-09T09:07:05;2.17;;;1.47;;
846;SDS011;410;48.954;9.474;2022-09-09T09:09:18;2.53;;;1.20;;
846;SDS011;410;48.954;9.474;2022-09-09T09:11:25;3.87;;;1.43;;
846;SDS011;410;48.954;9.474;2022-09-09T09:13:30;8.60;;;1.77;;
846;SDS011;410;48.954;9.474;2022-09-09T09:15:46;2.30;;;1.30;;
846;SDS011;410;48.954;9.474;2022-09-09T09:17:51;3.50;;;1.40;;
846;SDS011;410;48.954;9.474;2022-09-09T09:19:55;4.60;;;1.50;;
846;SDS011;410;48.954;9.474;2022-09-09T09:21:59;2.93;;;1.30;;
846;SDS011;410;48.954;9.474;2022-09-09T09:24:12;3.50;;;1.40;;
846;SDS011;410;48.954;9.474;2022-09-09T09:26:23;6.43;;;1.30;;
846;SDS011;410;48.954;9.474;2022-09-09T09:28:29;7.43;;;2.00;;
846;SDS011;410;48.954;9.474;2022-09-09T09:30:42;3.10;;;1.43;;
846;SDS011;410;48.954;9.474;2022-09-09T09:32:50;4.13;;;1.20;;
846;SDS011;410;48.954;9.474;2022-09-09T09:34:55;4.13;;;1.57;;
846;SDS011;410;48.954;9.474;2022-09-09T09:36:59;7.00;;;1.70;;
846;SDS011;410;48.954;9.474;2022-09-09T09:39:07;2.30;;;1.60;;
846;SDS011;410;48.954;9.474;2022-09-09T09:41:34;5.97;;;1.60;;
846;SDS011;410;48.954;9.474;2022-09-09T09:43:40;2.47;;;1.30;;
846;SDS011;410;48.954;9.474;2022-09-09T09:45:49;3.43;;;1.53;;
846;SDS011;410;48.954;9.474;2022-09-09T09:48:12;4.10;;;1.53;;
846;SDS011;410;48.954;9.474;2022-09-09T09:50:17;2.67;;;1.60;;
846;SDS011;410;48.954;9.474;2022-09-09T09:52:24;9.07;;;1.60;;
846;SDS011;410;48.954;9.474;2022-09-09T09:54:30;4.67;;;1.57;;
846;SDS011;410;48.954;9.474;2022-09-09T09:56:37;5.57;;;1.80;;
846;SDS011;410;48.954;9.474;2022-09-09T09:58:48;5.33;;;1.50;;
846;SDS011;410;48.954;9.474;2022-09-09T10:00:57;3.33;;;1.53;;
846;SDS011;410;48.954;9.474;2022-09-09T10:03:12;3.43;;;1.70;;
846;SDS011;410;48.954;9.474;2022-09-09T10:05:19;4.83;;;1.60;;
846;SDS011;410;48.954;9.474;2022-09-09T10:07:31;3.87;;;1.53;;
846;SDS011;410;48.954;9.474;2022-09-09T10:09:36;5.23;;;1.80;;
846;SDS011;410;48.954;9.474;2022-09-09T10:11:43;3.20;;;1.83;;
846;SDS011;410;48.954;9.474;2022-09-09T10:13:50;4.03;;;1.80;;
846;SDS011;410;48.954;9.474;2022-09-09T10:16:02;4.77;;;1.80;;
846;SDS011;410;48.954;9.474;2022-09-09T10:20:51;3.03;;;1.53;;
846;SDS011;410;48.954;9.474;2022-09-09T10:22:59;6.80;;;1.67;;
846;SDS011;410;48.954;9.474;2022-09-09T10:27:43;7.70;;;3.50;;
846;SDS011;410;48.954;9.474;2022-09-09T10:30:03;3.60;;;2.67;;
846;SDS011;410;48.954;9.474;2022-09-09T10:32:15;2.57;;;1.40;;
846;SDS011;410;48.954;9.474;2022-09-09T10:34:36;5.30;;;1.23;;
846;SDS011;410;48.954;9.474;2022-09-09T10:36:51;2.90;;;1.00;;
846;SDS011;410;48.954;9.474;2022-09-09T10:38:57;3.33;;;1.10;;
846;SDS011;410;48.954;9.474;2022-09-09T10:43:29;1.70;;;0.90;;
846;SDS011;410;48.954;9.474;2022-09-09T10:45:45;2.60;;;0.87;;
846;SDS011;410;48.954;9.474;2022-09-09T10:47:57;3.37;;;1.10;;
846;SDS011;410;48.954;9.474;2022-09-09T10:50:16;2.90;;;1.10;;
846;SDS011;410;48.954;9.474;2022-09-09T10:53:02;2.53;;;0.90;;
846;SDS011;410;48.954;9.474;2022-09-09T10:55:11;2.90;;;0.90;;
846;SDS011;410;48.954;9.474;2022-09-09T10:57:22;1.90;;;1.20;;
846;SDS011;410;48.954;9.474;2022-09-09T10:59:30;1.60;;;0.90;;
846;SDS011;410;48.954;9.474;2022-09-09T11:01:37;4.10;;;1.20;;
846;SDS011;410;48.954;9.474;2022-09-09T11:03:47;1.70;;;0.90;;
846;SDS011;410;48.954;9.474;2022-09-09T11:05:55;2.53;;;1.00;;
846;SDS011;410;48.954;9.474;2022-09-09T11:08:01;2.97;;;1.10;;
846;SDS011;410;48.954;9.474;2022-09-09T11:10:07;5.23;;;1.23;;
846;SDS011;410;48.954;9.474;2022-09-09T11:12:20;4.30;;;1.43;;
846;SDS011;410;48.954;9.474;2022-09-09T11:14:27;1.97;;;1.20;;
846;SDS011;410;48.954;9.474;2022-09-09T11:16:39;3.53;;;0.93;;
846;SDS011;410;48.954;9.474;2022-09-09T11:18:44;5.93;;;1.47;;
846;SDS011;410;48.954;9.474;2022-09-09T11:20:50;3.20;;;1.20;;
846;SDS011;410;48.954;9.474;2022-09-09T11:22:58;4.70;;;1.20;;
846;SDS011;410;48.954;9.474;2022-09-09T11:25:05;2.60;;;1.57;;
846;SDS011;410;48.954;9.474;2022-09-09T11:27:11;3.93;;;1.27;;
846;SDS011;410;48.954;9.474;2022-09-09T11:31:59;4.40;;;1.17;;
846;SDS011;410;48.954;9.474;2022-09-09T11:34:12;4.23;;;1.13;;
846;SDS011;410;48.954;9.474;2022-09-09T11:38:47;4.40;;;1.40;;
846;SDS011;410;48.954;9.474;2022-09-09T11:40:54;3.70;;;1.50;;
846;SDS011;410;48.954;9.474;2022-09-09T11:43:03;8.70;;;1.40;;
846;SDS011;410;48.954;9.474;2022-09-09T11:45:08;8.80;;;1.40;;
846;SDS011;410;48.954;9.474;2022-09-09T11:47:22;15.10;;;2.63;;
846;SDS011;410;48.954;9.474;2022-09-09T11:49:40;7.03;;;2.53;;
846;SDS011;410;48.954;9.474;2022-09-09T11:51:44;7.13;;;1.90;;
846;SDS011;410;48.954;9.474;2022-09-09T11:53:48;5.73;;;2.47;;
846;SDS011;410;48.954;9.474;2022-09-09T11:56:02;6.53;;;2.20;;
846;SDS011;410;48.954;9.474;2022-09-09T11:58:15;8.53;;;2.30;;
846;SDS011;410;48.954;9.474;2022-09-09T12:00:31;7.00;;;2.20;;
846;SDS011;410;48.954;9.474;2022-09-09T12:02:47;7.10;;;2.40;;
846;SDS011;410;48.954;9.474;2022-09-09T12:04:54;5.63;;;2.10;;
846;SDS011;410;48.954;9.474;2022-09-09T12:07:01;8.03;;;1.90;;
846;SDS011;410;48.954;9.474;2022-09-09T12:09:06;4.80;;;1.90;;
846;SDS011;410;48.954;9.474;2022-09-09T12:11:12;4.67;;;1.77;;
846;SDS011;410;48.954;9.474;2022-09-09T12:13:27;6.33;;;2.07;;
846;SDS011;410;48.954;9.474;2022-09-09T12:15:30;5.50;;;2.10;;
846;SDS011;410;48.954;9.474;2022-09-09T12:17:42;3.93;;;1.83;;
846;SDS011;410;48.954;9.474;2022-09-09T12:19:46;6.67;;;2.50;;
846;SDS011;410;48.954;9.474;2022-09-09T12:21:51;6.20;;;2.20;;
846;SDS011;410;48.954;9.474;2022-09-09T12:24:00;5.83;;;1.90;;
846;SDS011;410;48.954;9.474;2022-09-09T12:26:17;6.37;;;2.37;;
846;SDS011;410;48.954;9.474;2022-09-09T12:28:42;5.07;;;2.30;;
846;SDS011;410;48.954;9.474;2022-09-09T12:30:53;4.00;;;1.80;;
846;SDS011;410;48.954;9.474;2022-09-09T12:33:02;4.03;;;1.60;;
846;SDS011;410;48.954;9.474;2022-09-09T12:35:11;3.80;;;1.60;;
846;SDS011;410;48.954;9.474;2022-09-09T12:37:18;4.37;;;1.83;;
846;SDS011;410;48.954;9.474;2022-09-09T12:39:32;5.30;;;1.80;;
846;SDS011;410;48.954;9.474;2022-09-09T12:41:37;3.70;;;1.60;;
846;SDS011;410;48.954;9.474;2022-09-09T12:43:40;3.53;;;1.60;;
846;SDS011;410;48.954;9.474;2022-09-09T12:45:43;5.60;;;1.70;;
846;SDS011;410;48.954;9.474;2022-09-09T12:47:47;4.30;;;1.77;;
846;SDS011;410;48.954;9.474;2022-09-09T12:49:53;4.10;;;1.50;;
846;SDS011;410;48.954;9.474;2022-09-09T12:51:58;4.57;;;1.30;;
846;SDS011;410;48.954;9.474;2022-09-09T12:54:01;4.60;;;1.70;;
846;SDS011;410;48.954;9.474;2022-09-09T12:56:06;5.00;;;1.80;;
846;SDS011;410;48.954;9.474;2022-09-09T12:58:11;2.90;;;1.47;;
846;SDS011;410;48.954;9.474;2022-09-09T13:00:17;10.77;;;2.00;;
846;SDS011;410;48.954;9.474;2022-09-09T13:02:22;4.13;;;1.30;;
846;SDS011;410;48.954;9.474;2022-09-09T13:04:26;5.10;;;1.50;;
846;SDS011;410;48.954;9.474;2022-09-09T13:06:31;4.37;;;2.10;;
846;SDS011;410;48.954;9.474;2022-09-09T13:08:35;2.13;;;1.10;;
846;SDS011;410;48.954;9.474;2022-09-09T13:10:39;3.33;;;1.43;;
846;SDS011;410;48.954;9.474;2022-09-09T13:12:55;1.80;;;1.10;;
846;SDS011;410;48.954;9.474;2022-09-09T13:14:59;2.23;;;0.90;;
846;SDS011;410;48.954;9.474;2022-09-09T13:17:04;3.00;;;1.30;;
846;SDS011;410;48.954;9.474;2022-09-09T13:19:08;2.43;;;0.87;;
846;SDS011;410;48.954;9.474;2022-09-09T13:21:18;3.50;;;1.03;;
846;SDS011;410;48.954;9.474;2022-09-09T13:23:24;1.63;;;0.80;;
846;SDS011;410;48.954;9.474;2022-09-09T13:25:29;1.60;;;0.60;;
846;SDS011;410;48.954;9.474;2022-09-09T13:27:33;2.80;;;0.90;;
846;SDS011;410;48.954;9.474;2022-09-09T13:29:40;3.20;;;1.03;;
846;SDS011;410;48.954;9.474;2022-09-09T13:31:53;3.63;;;1.00;;
846;SDS011;410;48.954;9.474;2022-09-09T13:33:57;2.30;;;0.60;;
846;SDS011;410;48.954;9.474;2022-09-09T13:36:01;3.40;;;1.07;;
846;SDS011;410;48.954;9.474;2022-09-09T13:38:08;1.87;;;0.93;;
846;SDS011;410;48.954;9.474;2022-09-09T13:40:16;2.57;;;1.07;;
846;SDS011;410;48.954;9.474;2022-09-09T13:42:24;2.13;;;0.70;;
846;SDS011;410;48.954;9.474;2022-09-09T13:44:30;3.77;;;1.47;;
846;SDS011;410;48.954;9.474;2022-09-09T13:46:35;4.10;;;1.10;;
846;SDS011;410;48.954;9.474;2022-09-09T13:48:39;2.97;;;1.10;;
846;SDS011;410;48.954;9.474;2022-09-09T13:50:42;2.03;;;1.00;;
846;SDS011;410;48.954;9.474;2022-09-09T13:52:57;3.00;;;2.07;;